sensor_id;sensor_type;location;lat;lon;timestamp;P1;durP1;ratioP1;P2;durP2;ratioP2
19396;SDS011;9834;48.076;11.878;2023-02-07T00:00:19;16.63;;;10.63;;
19396;SDS011;9834;48.076;11.878;2023-02-07T00:02:48;18.47;;;11.63;;
19396;SDS011;9834;48.076;11.878;2023-02-07T00:05:15;16.20;;;10.50;;
19396;SDS011;9834;48.076;11.878;2023-02-07T00:07:42;17.80;;;10.93;;
19396;SDS011;9834;48.076;11.878;2023-02-07T00:10:10;20.87;;;11.27;;
19396;SDS011;9834;48.076;11.878;2023-02-07T00:12:37;17.53;;;11.07;;
19396;SDS011;9834;48.076;11.878;2023-02-07T00:15:05;17.90;;;10.53;;
19396;SDS011;9834;48.076;11.878;2023-02-07T00:17:33;16.67;;;10.57;;
19396;SDS011;9834;48.076;11.878;2023-02-07T00:20:02;17.10;;;11.47;;
19396;SDS011;9834;48.076;11.878;2023-02-07T00:22:30;17.93;;;10.87;;
19396;SDS011;9834;48.076;11.878;2023-02-07T00:24:58;17.53;;;10.73;;
19396;SDS011;9834;48.076;11.878;2023-02-07T00:27:26;14.40;;;10.33;;
19396;SDS011;9834;48.076;11.878;2023-02-07T00:29:56;15.63;;;9.83;;
19396;SDS011;9834;48.076;11.878;2023-02-07T00:32:23;16.13;;;10.60;;
19396;SDS011;9834;48.076;11.878;2023-02-07T00:34:54;14.93;;;9.73;;
19396;SDS011;9834;48.076;11.878;2023-02-07T00:37:22;13.40;;;9.33;;
19396;SDS011;9834;48.076;11.878;2023-02-07T00:39:49;19.57;;;10.50;;
19396;SDS011;9834;48.076;11.878;2023-02-07T00:42:16;18.97;;;10.93;;
19396;SDS011;9834;48.076;11.878;2023-02-07T00:44:43;17.80;;;11.27;;
19396;SDS011;9834;48.076;11.878;2023-02-07T00:47:10;13.87;;;10.90;;
19396;SDS011;9834;48.076;11.878;2023-02-07T00:49:38;16.63;;;10.97;;
19396;SDS011;9834;48.076;11.878;2023-02-07T00:52:05;16.40;;;10.30;;
19396;SDS011;9834;48.076;11.878;2023-02-07T00:54:35;16.50;;;10.60;;
19396;SDS011;9834;48.076;11.878;2023-02-07T00:57:02;14.00;;;10.37;;
19396;SDS011;9834;48.076;11.878;2023-02-07T00:59:30;20.90;;;11.63;;
19396;SDS011;9834;48.076;11.878;2023-02-07T01:01:57;13.63;;;10.27;;
19396;SDS011;9834;48.076;11.878;2023-02-07T01:04:24;16.23;;;10.83;;
19396;SDS011;9834;48.076;11.878;2023-02-07T01:06:52;13.40;;;9.93;;
19396;SDS011;9834;48.076;11.878;2023-02-07T01:09:19;15.13;;;10.27;;
19396;SDS011;9834;48.076;11.878;2023-02-07T01:11:48;16.57;;;10.07;;
19396;SDS011;9834;48.076;11.878;2023-02-07T01:14:15;12.40;;;9.27;;
19396;SDS011;9834;48.076;11.878;2023-02-07T01:16:42;18.03;;;10.70;;
19396;SDS011;9834;48.076;11.878;2023-02-07T01:19:10;18.67;;;10.37;;
19396;SDS011;9834;48.076;11.878;2023-02-07T01:21:38;15.10;;;10.07;;
19396;SDS011;9834;48.076;11.878;2023-02-07T01:24:05;15.13;;;11.07;;
19396;SDS011;9834;48.076;11.878;2023-02-07T01:26:34;15.60;;;9.97;;
19396;SDS011;9834;48.076;11.878;2023-02-07T01:29:03;14.07;;;9.47;;
19396;SDS011;9834;48.076;11.878;2023-02-07T01:31:30;17.17;;;10.50;;
19396;SDS011;9834;48.076;11.878;2023-02-07T01:33:58;17.60;;;11.13;;
19396;SDS011;9834;48.076;11.878;2023-02-07T01:36:26;16.97;;;10.87;;
19396;SDS011;9834;48.076;11.878;2023-02-07T01:38:54;20.80;;;10.77;;
19396;SDS011;9834;48.076;11.878;2023-02-07T01:41:22;12.33;;;9.93;;
19396;SDS011;9834;48.076;11.878;2023-02-07T01:43:53;17.73;;;10.20;;
19396;SDS011;9834;48.076;11.878;2023-02-07T01:46:23;18.40;;;11.57;;
19396;SDS011;9834;48.076;11.878;2023-02-07T01:48:50;15.43;;;9.80;;
19396;SDS011;9834;48.076;11.878;2023-02-07T01:51:19;15.23;;;10.43;;
19396;SDS011;9834;48.076;11.878;2023-02-07T01:53:48;15.07;;;9.77;;
19396;SDS011;9834;48.076;11.878;2023-02-07T01:56:15;16.07;;;10.53;;
19396;SDS011;9834;48.076;11.878;2023-02-07T01:58:43;15.53;;;11.13;;
19396;SDS011;9834;48.076;11.878;2023-02-07T02:01:12;15.87;;;9.93;;
19396;SDS011;9834;48.076;11.878;2023-02-07T02:03:46;17.07;;;9.47;;
19396;SDS011;9834;48.076;11.878;2023-02-07T02:06:15;15.23;;;10.80;;
19396;SDS011;9834;48.076;11.878;2023-02-07T02:08:44;16.57;;;10.03;;
19396;SDS011;9834;48.076;11.878;2023-02-07T02:11:16;12.53;;;9.10;;
19396;SDS011;9834;48.076;11.878;2023-02-07T02:14:00;16.63;;;9.37;;
19396;SDS011;9834;48.076;11.878;2023-02-07T02:16:39;14.73;;;10.00;;
19396;SDS011;9834;48.076;11.878;2023-02-07T02:25:13;15.00;;;9.90;;
19396;SDS011;9834;48.076;11.878;2023-02-07T02:31:09;15.57;;;10.03;;
19396;SDS011;9834;48.076;11.878;2023-02-07T02:34:01;15.13;;;10.77;;
19396;SDS011;9834;48.076;11.878;2023-02-07T02:36:40;13.20;;;8.80;;
19396;SDS011;9834;48.076;11.878;2023-02-07T02:39:15;14.33;;;9.43;;
19396;SDS011;9834;48.076;11.878;2023-02-07T02:41:48;15.67;;;10.00;;
19396;SDS011;9834;48.076;11.878;2023-02-07T02:44:25;15.73;;;10.00;;
19396;SDS011;9834;48.076;11.878;2023-02-07T02:46:57;14.20;;;9.73;;
19396;SDS011;9834;48.076;11.878;2023-02-07T02:49:32;17.20;;;10.80;;
19396;SDS011;9834;48.076;11.878;2023-02-07T02:52:04;19.63;;;9.97;;
19396;SDS011;9834;48.076;11.878;2023-02-07T02:54:32;22.30;;;10.63;;
19396;SDS011;9834;48.076;11.878;2023-02-07T02:57:06;18.43;;;10.27;;
19396;SDS011;9834;48.076;11.878;2023-02-07T03:00:11;17.57;;;10.43;;
19396;SDS011;9834;48.076;11.878;2023-02-07T03:02:50;16.07;;;9.77;;
19396;SDS011;9834;48.076;11.878;2023-02-07T03:05:31;15.47;;;10.37;;
19396;SDS011;9834;48.076;11.878;2023-02-07T03:08:15;15.07;;;9.37;;
19396;SDS011;9834;48.076;11.878;2023-02-07T03:10:54;16.70;;;9.77;;
19396;SDS011;9834;48.076;11.878;2023-02-07T03:13:25;17.43;;;10.77;;
19396;SDS011;9834;48.076;11.878;2023-02-07T03:16:01;12.27;;;9.67;;
19396;SDS011;9834;48.076;11.878;2023-02-07T03:18:35;16.77;;;10.87;;
19396;SDS011;9834;48.076;11.878;2023-02-07T03:21:11;17.90;;;9.63;;
19396;SDS011;9834;48.076;11.878;2023-02-07T03:23:44;15.77;;;10.57;;
19396;SDS011;9834;48.076;11.878;2023-02-07T03:26:14;15.67;;;10.50;;
19396;SDS011;9834;48.076;11.878;2023-02-07T03:28:44;19.87;;;10.90;;
19396;SDS011;9834;48.076;11.878;2023-02-07T03:31:13;15.27;;;9.50;;
19396;SDS011;9834;48.076;11.878;2023-02-07T03:33:43;17.30;;;10.13;;
19396;SDS011;9834;48.076;11.878;2023-02-07T03:36:18;19.43;;;10.83;;
19396;SDS011;9834;48.076;11.878;2023-02-07T03:38:49;13.93;;;9.90;;
19396;SDS011;9834;48.076;11.878;2023-02-07T03:41:19;19.53;;;11.20;;
19396;SDS011;9834;48.076;11.878;2023-02-07T03:43:50;18.07;;;11.40;;
19396;SDS011;9834;48.076;11.878;2023-02-07T03:46:19;17.10;;;10.37;;
19396;SDS011;9834;48.076;11.878;2023-02-07T03:48:49;15.77;;;10.17;;
19396;SDS011;9834;48.076;11.878;2023-02-07T03:51:18;18.83;;;10.67;;
19396;SDS011;9834;48.076;11.878;2023-02-07T03:53:45;17.07;;;10.30;;
19396;SDS011;9834;48.076;11.878;2023-02-07T03:56:12;16.47;;;10.40;;
19396;SDS011;9834;48.076;11.878;2023-02-07T03:58:39;17.03;;;10.90;;
19396;SDS011;9834;48.076;11.878;2023-02-07T04:01:06;18.97;;;10.80;;
19396;SDS011;9834;48.076;11.878;2023-02-07T04:03:33;15.87;;;10.57;;
19396;SDS011;9834;48.076;11.878;2023-02-07T04:06:01;18.53;;;10.50;;
19396;SDS011;9834;48.076;11.878;2023-02-07T04:08:30;18.30;;;11.07;;
19396;SDS011;9834;48.076;11.878;2023-02-07T04:10:57;14.70;;;10.27;;
19396;SDS011;9834;48.076;11.878;2023-02-07T04:13:25;22.03;;;10.23;;
19396;SDS011;9834;48.076;11.878;2023-02-07T04:15:52;15.73;;;9.43;;
19396;SDS011;9834;48.076;11.878;2023-02-07T04:18:19;19.97;;;9.90;;
19396;SDS011;9834;48.076;11.878;2023-02-07T04:20:47;18.93;;;9.90;;
19396;SDS011;9834;48.076;11.878;2023-02-07T04:23:16;17.93;;;9.87;;
19396;SDS011;9834;48.076;11.878;2023-02-07T04:25:44;21.50;;;10.83;;
19396;SDS011;9834;48.076;11.878;2023-02-07T04:28:11;17.17;;;10.33;;
19396;SDS011;9834;48.076;11.878;2023-02-07T04:30:38;15.10;;;9.67;;
19396;SDS011;9834;48.076;11.878;2023-02-07T04:33:05;14.57;;;9.37;;
19396;SDS011;9834;48.076;11.878;2023-02-07T04:35:33;14.30;;;9.07;;
19396;SDS011;9834;48.076;11.878;2023-02-07T04:38:00;15.67;;;9.60;;
19396;SDS011;9834;48.076;11.878;2023-02-07T04:40:27;13.83;;;8.87;;
19396;SDS011;9834;48.076;11.878;2023-02-07T04:42:56;15.33;;;10.27;;
19396;SDS011;9834;48.076;11.878;2023-02-07T04:45:23;16.13;;;9.60;;
19396;SDS011;9834;48.076;11.878;2023-02-07T04:47:52;17.70;;;10.43;;
19396;SDS011;9834;48.076;11.878;2023-02-07T04:50:19;20.23;;;10.80;;
19396;SDS011;9834;48.076;11.878;2023-02-07T04:52:46;13.83;;;9.27;;
19396;SDS011;9834;48.076;11.878;2023-02-07T04:55:13;17.07;;;9.90;;
19396;SDS011;9834;48.076;11.878;2023-02-07T04:57:40;14.40;;;9.43;;
19396;SDS011;9834;48.076;11.878;2023-02-07T05:00:09;16.50;;;9.73;;
19396;SDS011;9834;48.076;11.878;2023-02-07T05:02:38;13.77;;;9.30;;
19396;SDS011;9834;48.076;11.878;2023-02-07T05:05:05;12.17;;;9.37;;
19396;SDS011;9834;48.076;11.878;2023-02-07T05:07:33;16.40;;;9.00;;
19396;SDS011;9834;48.076;11.878;2023-02-07T05:10:00;17.83;;;10.03;;
19396;SDS011;9834;48.076;11.878;2023-02-07T05:12:27;14.93;;;9.60;;
19396;SDS011;9834;48.076;11.878;2023-02-07T05:14:54;17.07;;;10.50;;
19396;SDS011;9834;48.076;11.878;2023-02-07T05:17:25;13.90;;;9.57;;
19396;SDS011;9834;48.076;11.878;2023-02-07T05:19:52;14.97;;;10.07;;
19396;SDS011;9834;48.076;11.878;2023-02-07T05:22:20;15.50;;;10.23;;
19396;SDS011;9834;48.076;11.878;2023-02-07T05:24:47;12.47;;;9.57;;
19396;SDS011;9834;48.076;11.878;2023-02-07T05:27:14;17.07;;;10.23;;
19396;SDS011;9834;48.076;11.878;2023-02-07T05:29:41;15.07;;;10.87;;
19396;SDS011;9834;48.076;11.878;2023-02-07T05:32:09;18.33;;;10.17;;
19396;SDS011;9834;48.076;11.878;2023-02-07T05:34:57;17.27;;;11.03;;
19396;SDS011;9834;48.076;11.878;2023-02-07T05:37:25;16.80;;;10.93;;
19396;SDS011;9834;48.076;11.878;2023-02-07T05:39:53;18.47;;;11.10;;
19396;SDS011;9834;48.076;11.878;2023-02-07T05:42:20;16.33;;;10.07;;
19396;SDS011;9834;48.076;11.878;2023-02-07T05:44:48;14.03;;;10.17;;
19396;SDS011;9834;48.076;11.878;2023-02-07T05:47:15;17.70;;;9.90;;
19396;SDS011;9834;48.076;11.878;2023-02-07T05:49:42;16.07;;;10.43;;
19396;SDS011;9834;48.076;11.878;2023-02-07T05:52:14;17.13;;;9.97;;
19396;SDS011;9834;48.076;11.878;2023-02-07T05:54:41;13.67;;;9.53;;
19396;SDS011;9834;48.076;11.878;2023-02-07T05:57:11;12.93;;;8.83;;
19396;SDS011;9834;48.076;11.878;2023-02-07T05:59:38;14.87;;;9.30;;
19396;SDS011;9834;48.076;11.878;2023-02-07T06:02:05;16.47;;;10.13;;
19396;SDS011;9834;48.076;11.878;2023-02-07T06:04:38;22.03;;;11.17;;
19396;SDS011;9834;48.076;11.878;2023-02-07T06:07:06;20.10;;;11.53;;
19396;SDS011;9834;48.076;11.878;2023-02-07T06:09:34;14.23;;;9.50;;
19396;SDS011;9834;48.076;11.878;2023-02-07T06:12:01;14.63;;;9.83;;
19396;SDS011;9834;48.076;11.878;2023-02-07T06:14:29;18.67;;;10.77;;
19396;SDS011;9834;48.076;11.878;2023-02-07T06:17:00;13.30;;;8.67;;
19396;SDS011;9834;48.076;11.878;2023-02-07T06:19:26;14.33;;;9.70;;
19396;SDS011;9834;48.076;11.878;2023-02-07T06:21:54;16.97;;;9.73;;
19396;SDS011;9834;48.076;11.878;2023-02-07T06:24:21;15.17;;;9.37;;
19396;SDS011;9834;48.076;11.878;2023-02-07T06:26:50;14.13;;;9.73;;
19396;SDS011;9834;48.076;11.878;2023-02-07T06:29:17;17.40;;;9.90;;
19396;SDS011;9834;48.076;11.878;2023-02-07T06:31:44;17.60;;;10.30;;
19396;SDS011;9834;48.076;11.878;2023-02-07T06:34:11;14.40;;;8.70;;
19396;SDS011;9834;48.076;11.878;2023-02-07T06:36:38;15.70;;;9.87;;
19396;SDS011;9834;48.076;11.878;2023-02-07T06:39:19;14.13;;;9.40;;
19396;SDS011;9834;48.076;11.878;2023-02-07T06:41:47;15.27;;;10.83;;
19396;SDS011;9834;48.076;11.878;2023-02-07T06:44:15;15.13;;;9.57;;
19396;SDS011;9834;48.076;11.878;2023-02-07T06:46:42;15.23;;;9.30;;
19396;SDS011;9834;48.076;11.878;2023-02-07T06:49:09;18.27;;;10.47;;
19396;SDS011;9834;48.076;11.878;2023-02-07T06:51:37;16.53;;;10.47;;
19396;SDS011;9834;48.076;11.878;2023-02-07T06:54:04;14.80;;;9.27;;
19396;SDS011;9834;48.076;11.878;2023-02-07T06:56:34;18.77;;;9.80;;
19396;SDS011;9834;48.076;11.878;2023-02-07T06:59:01;17.50;;;10.60;;
19396;SDS011;9834;48.076;11.878;2023-02-07T07:01:30;13.97;;;9.47;;
19396;SDS011;9834;48.076;11.878;2023-02-07T07:03:57;19.20;;;10.47;;
19396;SDS011;9834;48.076;11.878;2023-02-07T07:06:25;12.73;;;9.37;;
19396;SDS011;9834;48.076;11.878;2023-02-07T07:08:52;18.30;;;9.87;;
19396;SDS011;9834;48.076;11.878;2023-02-07T07:11:19;18.03;;;10.27;;
19396;SDS011;9834;48.076;11.878;2023-02-07T07:13:46;17.27;;;9.90;;
19396;SDS011;9834;48.076;11.878;2023-02-07T07:16:13;16.80;;;9.40;;
19396;SDS011;9834;48.076;11.878;2023-02-07T07:18:42;17.33;;;9.63;;
19396;SDS011;9834;48.076;11.878;2023-02-07T07:21:09;21.47;;;10.57;;
19396;SDS011;9834;48.076;11.878;2023-02-07T07:23:36;18.10;;;10.83;;
19396;SDS011;9834;48.076;11.878;2023-02-07T07:26:04;17.63;;;11.23;;
19396;SDS011;9834;48.076;11.878;2023-02-07T07:28:31;14.80;;;9.90;;
19396;SDS011;9834;48.076;11.878;2023-02-07T07:31:02;15.07;;;10.53;;
19396;SDS011;9834;48.076;11.878;2023-02-07T07:33:30;19.83;;;11.83;;
19396;SDS011;9834;48.076;11.878;2023-02-07T07:35:59;17.23;;;11.23;;
19396;SDS011;9834;48.076;11.878;2023-02-07T07:38:28;14.10;;;10.97;;
19396;SDS011;9834;48.076;11.878;2023-02-07T07:40:56;13.67;;;10.23;;
19396;SDS011;9834;48.076;11.878;2023-02-07T07:43:23;16.10;;;10.30;;
19396;SDS011;9834;48.076;11.878;2023-02-07T07:45:51;16.73;;;11.53;;
19396;SDS011;9834;48.076;11.878;2023-02-07T07:48:19;19.30;;;10.67;;
19396;SDS011;9834;48.076;11.878;2023-02-07T07:50:47;15.33;;;10.47;;
19396;SDS011;9834;48.076;11.878;2023-02-07T07:53:16;15.40;;;10.70;;
19396;SDS011;9834;48.076;11.878;2023-02-07T07:55:47;27.00;;;13.10;;
19396;SDS011;9834;48.076;11.878;2023-02-07T07:58:14;17.50;;;11.13;;
19396;SDS011;9834;48.076;11.878;2023-02-07T08:00:42;17.33;;;12.83;;
19396;SDS011;9834;48.076;11.878;2023-02-07T08:03:09;17.10;;;11.67;;
19396;SDS011;9834;48.076;11.878;2023-02-07T08:05:36;17.27;;;11.30;;
19396;SDS011;9834;48.076;11.878;2023-02-07T08:08:04;17.00;;;10.67;;
19396;SDS011;9834;48.076;11.878;2023-02-07T08:10:39;17.83;;;11.07;;
19396;SDS011;9834;48.076;11.878;2023-02-07T08:13:06;15.87;;;10.93;;
19396;SDS011;9834;48.076;11.878;2023-02-07T08:15:33;16.97;;;11.43;;
19396;SDS011;9834;48.076;11.878;2023-02-07T08:18:00;14.53;;;9.90;;
19396;SDS011;9834;48.076;11.878;2023-02-07T08:20:28;20.10;;;10.63;;
19396;SDS011;9834;48.076;11.878;2023-02-07T08:22:55;15.93;;;10.47;;
19396;SDS011;9834;48.076;11.878;2023-02-07T08:25:23;19.80;;;12.17;;
19396;SDS011;9834;48.076;11.878;2023-02-07T08:27:52;18.10;;;11.47;;
19396;SDS011;9834;48.076;11.878;2023-02-07T08:30:19;16.83;;;10.60;;
19396;SDS011;9834;48.076;11.878;2023-02-07T08:32:46;17.10;;;11.73;;
19396;SDS011;9834;48.076;11.878;2023-02-07T08:35:15;14.87;;;11.17;;
19396;SDS011;9834;48.076;11.878;2023-02-07T08:37:43;19.30;;;10.80;;
19396;SDS011;9834;48.076;11.878;2023-02-07T08:40:11;19.07;;;11.67;;
19396;SDS011;9834;48.076;11.878;2023-02-07T08:42:38;14.57;;;10.33;;
19396;SDS011;9834;48.076;11.878;2023-02-07T08:45:08;16.40;;;10.93;;
19396;SDS011;9834;48.076;11.878;2023-02-07T08:47:35;14.80;;;10.30;;
19396;SDS011;9834;48.076;11.878;2023-02-07T08:50:03;14.60;;;10.57;;
19396;SDS011;9834;48.076;11.878;2023-02-07T08:52:31;15.63;;;10.87;;
19396;SDS011;9834;48.076;11.878;2023-02-07T08:54:59;15.10;;;10.10;;
19396;SDS011;9834;48.076;11.878;2023-02-07T08:57:26;15.67;;;9.80;;
19396;SDS011;9834;48.076;11.878;2023-02-07T08:59:53;18.17;;;11.13;;
19396;SDS011;9834;48.076;11.878;2023-02-07T09:02:21;17.03;;;10.53;;
19396;SDS011;9834;48.076;11.878;2023-02-07T09:04:49;18.13;;;10.43;;
19396;SDS011;9834;48.076;11.878;2023-02-07T09:07:16;17.23;;;10.10;;
19396;SDS011;9834;48.076;11.878;2023-02-07T09:09:43;20.23;;;11.30;;
19396;SDS011;9834;48.076;11.878;2023-02-07T09:12:13;15.00;;;10.80;;
19396;SDS011;9834;48.076;11.878;2023-02-07T09:14:40;13.53;;;10.77;;
19396;SDS011;9834;48.076;11.878;2023-02-07T09:17:09;18.53;;;11.03;;
19396;SDS011;9834;48.076;11.878;2023-02-07T09:19:37;17.67;;;10.97;;
19396;SDS011;9834;48.076;11.878;2023-02-07T09:22:04;14.53;;;9.33;;
19396;SDS011;9834;48.076;11.878;2023-02-07T09:24:31;17.30;;;10.73;;
19396;SDS011;9834;48.076;11.878;2023-02-07T09:26:58;13.73;;;10.87;;
19396;SDS011;9834;48.076;11.878;2023-02-07T09:29:26;14.93;;;10.70;;
19396;SDS011;9834;48.076;11.878;2023-02-07T09:31:53;22.10;;;10.77;;
19396;SDS011;9834;48.076;11.878;2023-02-07T09:34:21;21.00;;;11.50;;
19396;SDS011;9834;48.076;11.878;2023-02-07T09:36:49;14.23;;;11.17;;
19396;SDS011;9834;48.076;11.878;2023-02-07T09:39:16;16.73;;;9.63;;
19396;SDS011;9834;48.076;11.878;2023-02-07T09:41:46;15.63;;;10.03;;
19396;SDS011;9834;48.076;11.878;2023-02-07T09:44:21;15.30;;;8.77;;
19396;SDS011;9834;48.076;11.878;2023-02-07T09:46:53;17.60;;;9.10;;
19396;SDS011;9834;48.076;11.878;2023-02-07T09:49:27;16.40;;;10.53;;
19396;SDS011;9834;48.076;11.878;2023-02-07T09:52:01;10.67;;;8.07;;
19396;SDS011;9834;48.076;11.878;2023-02-07T09:54:32;12.83;;;8.63;;
19396;SDS011;9834;48.076;11.878;2023-02-07T09:57:05;14.93;;;8.53;;
19396;SDS011;9834;48.076;11.878;2023-02-07T09:59:40;15.53;;;8.07;;
19396;SDS011;9834;48.076;11.878;2023-02-07T10:02:16;10.70;;;7.03;;
19396;SDS011;9834;48.076;11.878;2023-02-07T10:04:48;12.90;;;8.20;;
19396;SDS011;9834;48.076;11.878;2023-02-07T10:07:19;10.13;;;7.20;;
19396;SDS011;9834;48.076;11.878;2023-02-07T10:09:46;11.77;;;7.63;;
19396;SDS011;9834;48.076;11.878;2023-02-07T10:12:17;13.47;;;8.23;;
19396;SDS011;9834;48.076;11.878;2023-02-07T10:15:03;11.03;;;7.00;;
19396;SDS011;9834;48.076;11.878;2023-02-07T10:17:49;10.40;;;7.23;;
19396;SDS011;9834;48.076;11.878;2023-02-07T10:20:30;12.63;;;7.90;;
19396;SDS011;9834;48.076;11.878;2023-02-07T10:23:08;10.20;;;6.70;;
19396;SDS011;9834;48.076;11.878;2023-02-07T10:25:43;11.70;;;6.70;;
19396;SDS011;9834;48.076;11.878;2023-02-07T10:31:28;9.73;;;7.23;;
19396;SDS011;9834;48.076;11.878;2023-02-07T10:34:00;10.90;;;7.30;;
19396;SDS011;9834;48.076;11.878;2023-02-07T10:36:34;10.93;;;7.40;;
19396;SDS011;9834;48.076;11.878;2023-02-07T10:39:04;11.80;;;6.73;;
19396;SDS011;9834;48.076;11.878;2023-02-07T10:41:40;7.20;;;6.50;;
19396;SDS011;9834;48.076;11.878;2023-02-07T10:44:11;8.87;;;7.33;;
19396;SDS011;9834;48.076;11.878;2023-02-07T10:46:39;9.87;;;6.67;;
19396;SDS011;9834;48.076;11.878;2023-02-07T10:49:12;9.13;;;6.30;;
19396;SDS011;9834;48.076;11.878;2023-02-07T10:51:50;9.03;;;6.47;;
19396;SDS011;9834;48.076;11.878;2023-02-07T10:54:21;10.17;;;7.57;;
19396;SDS011;9834;48.076;11.878;2023-02-07T10:56:49;11.67;;;6.77;;
19396;SDS011;9834;48.076;11.878;2023-02-07T10:59:31;8.00;;;6.43;;
19396;SDS011;9834;48.076;11.878;2023-02-07T11:02:24;9.77;;;7.03;;
19396;SDS011;9834;48.076;11.878;2023-02-07T11:07:55;11.60;;;6.57;;
19396;SDS011;9834;48.076;11.878;2023-02-07T11:10:25;12.60;;;6.50;;
19396;SDS011;9834;48.076;11.878;2023-02-07T11:12:57;10.03;;;7.00;;
19396;SDS011;9834;48.076;11.878;2023-02-07T11:15:27;10.67;;;6.53;;
19396;SDS011;9834;48.076;11.878;2023-02-07T11:17:59;12.50;;;7.53;;
19396;SDS011;9834;48.076;11.878;2023-02-07T11:20:28;8.60;;;6.93;;
19396;SDS011;9834;48.076;11.878;2023-02-07T11:22:58;9.47;;;6.33;;
19396;SDS011;9834;48.076;11.878;2023-02-07T11:25:28;9.43;;;6.33;;
19396;SDS011;9834;48.076;11.878;2023-02-07T11:27:57;11.77;;;6.53;;
19396;SDS011;9834;48.076;11.878;2023-02-07T11:30:25;8.27;;;6.77;;
19396;SDS011;9834;48.076;11.878;2023-02-07T11:32:54;12.10;;;6.20;;
19396;SDS011;9834;48.076;11.878;2023-02-07T11:35:27;7.50;;;6.00;;
19396;SDS011;9834;48.076;11.878;2023-02-07T11:37:59;8.27;;;6.57;;
19396;SDS011;9834;48.076;11.878;2023-02-07T11:40:29;9.10;;;5.93;;
19396;SDS011;9834;48.076;11.878;2023-02-07T11:43:02;7.40;;;6.13;;
19396;SDS011;9834;48.076;11.878;2023-02-07T11:45:37;8.80;;;5.00;;
19396;SDS011;9834;48.076;11.878;2023-02-07T11:48:13;11.00;;;7.13;;
19396;SDS011;9834;48.076;11.878;2023-02-07T11:50:43;9.47;;;6.30;;
19396;SDS011;9834;48.076;11.878;2023-02-07T11:53:16;12.13;;;6.30;;
19396;SDS011;9834;48.076;11.878;2023-02-07T11:55:52;7.87;;;6.37;;
19396;SDS011;9834;48.076;11.878;2023-02-07T11:58:23;5.53;;;5.03;;
19396;SDS011;9834;48.076;11.878;2023-02-07T12:00:56;9.17;;;6.73;;
19396;SDS011;9834;48.076;11.878;2023-02-07T12:03:26;9.17;;;6.47;;
19396;SDS011;9834;48.076;11.878;2023-02-07T12:05:57;7.10;;;5.17;;
19396;SDS011;9834;48.076;11.878;2023-02-07T12:08:28;6.60;;;5.10;;
19396;SDS011;9834;48.076;11.878;2023-02-07T12:11:00;7.80;;;5.40;;
19396;SDS011;9834;48.076;11.878;2023-02-07T12:13:32;8.97;;;5.97;;
19396;SDS011;9834;48.076;11.878;2023-02-07T12:16:06;8.43;;;5.47;;
19396;SDS011;9834;48.076;11.878;2023-02-07T12:18:39;8.50;;;5.43;;
19396;SDS011;9834;48.076;11.878;2023-02-07T12:21:09;8.70;;;6.87;;
19396;SDS011;9834;48.076;11.878;2023-02-07T12:23:45;6.07;;;5.00;;
19396;SDS011;9834;48.076;11.878;2023-02-07T12:26:20;6.77;;;4.77;;
19396;SDS011;9834;48.076;11.878;2023-02-07T12:28:52;8.30;;;4.43;;
19396;SDS011;9834;48.076;11.878;2023-02-07T12:31:33;10.50;;;5.90;;
19396;SDS011;9834;48.076;11.878;2023-02-07T12:34:08;6.80;;;4.53;;
19396;SDS011;9834;48.076;11.878;2023-02-07T12:36:41;8.60;;;4.77;;
19396;SDS011;9834;48.076;11.878;2023-02-07T12:39:13;8.17;;;4.47;;
19396;SDS011;9834;48.076;11.878;2023-02-07T12:41:49;8.20;;;4.70;;
19396;SDS011;9834;48.076;11.878;2023-02-07T12:44:22;4.77;;;4.37;;
19396;SDS011;9834;48.076;11.878;2023-02-07T12:46:55;5.47;;;3.50;;
19396;SDS011;9834;48.076;11.878;2023-02-07T12:52:33;7.20;;;4.73;;
19396;SDS011;9834;48.076;11.878;2023-02-07T12:55:11;13.77;;;4.83;;
19396;SDS011;9834;48.076;11.878;2023-02-07T12:57:52;3.40;;;3.10;;
19396;SDS011;9834;48.076;11.878;2023-02-07T13:00:32;3.67;;;3.20;;
19396;SDS011;9834;48.076;11.878;2023-02-07T13:03:17;4.40;;;3.47;;
19396;SDS011;9834;48.076;11.878;2023-02-07T13:05:56;5.30;;;4.10;;
19396;SDS011;9834;48.076;11.878;2023-02-07T13:08:32;5.40;;;3.33;;
19396;SDS011;9834;48.076;11.878;2023-02-07T13:11:07;5.93;;;3.97;;
19396;SDS011;9834;48.076;11.878;2023-02-07T13:13:47;9.20;;;4.00;;
19396;SDS011;9834;48.076;11.878;2023-02-07T13:16:18;5.60;;;4.00;;
19396;SDS011;9834;48.076;11.878;2023-02-07T13:18:52;5.20;;;3.50;;
19396;SDS011;9834;48.076;11.878;2023-02-07T13:21:26;8.13;;;3.97;;
19396;SDS011;9834;48.076;11.878;2023-02-07T13:23:59;3.80;;;3.40;;
19396;SDS011;9834;48.076;11.878;2023-02-07T13:26:28;5.43;;;3.93;;
19396;SDS011;9834;48.076;11.878;2023-02-07T13:28:58;4.57;;;4.17;;
19396;SDS011;9834;48.076;11.878;2023-02-07T13:31:30;6.70;;;3.97;;
19396;SDS011;9834;48.076;11.878;2023-02-07T13:34:03;6.80;;;4.13;;
19396;SDS011;9834;48.076;11.878;2023-02-07T13:36:34;7.67;;;4.23;;
19396;SDS011;9834;48.076;11.878;2023-02-07T13:39:07;6.17;;;4.40;;
19396;SDS011;9834;48.076;11.878;2023-02-07T13:41:52;5.33;;;3.93;;
19396;SDS011;9834;48.076;11.878;2023-02-07T13:44:30;5.73;;;3.57;;
19396;SDS011;9834;48.076;11.878;2023-02-07T13:47:14;5.17;;;4.37;;
19396;SDS011;9834;48.076;11.878;2023-02-07T13:49:59;4.43;;;4.00;;
19396;SDS011;9834;48.076;11.878;2023-02-07T13:52:32;6.70;;;4.10;;
19396;SDS011;9834;48.076;11.878;2023-02-07T13:55:08;9.47;;;6.27;;
19396;SDS011;9834;48.076;11.878;2023-02-07T13:57:46;6.47;;;5.10;;
19396;SDS011;9834;48.076;11.878;2023-02-07T14:00:33;4.90;;;4.40;;
19396;SDS011;9834;48.076;11.878;2023-02-07T14:03:18;9.63;;;4.23;;
19396;SDS011;9834;48.076;11.878;2023-02-07T14:05:46;6.57;;;3.60;;
19396;SDS011;9834;48.076;11.878;2023-02-07T14:08:20;7.80;;;4.07;;
19396;SDS011;9834;48.076;11.878;2023-02-07T14:10:49;5.23;;;4.17;;
19396;SDS011;9834;48.076;11.878;2023-02-07T14:13:27;6.37;;;4.17;;
19396;SDS011;9834;48.076;11.878;2023-02-07T14:16:01;6.50;;;3.97;;
19396;SDS011;9834;48.076;11.878;2023-02-07T14:18:33;4.33;;;3.43;;
19396;SDS011;9834;48.076;11.878;2023-02-07T14:24:28;10.83;;;4.20;;
19396;SDS011;9834;48.076;11.878;2023-02-07T14:26:58;5.03;;;4.23;;
19396;SDS011;9834;48.076;11.878;2023-02-07T14:36:05;4.83;;;4.27;;
19396;SDS011;9834;48.076;11.878;2023-02-07T14:38:58;3.77;;;3.47;;
19396;SDS011;9834;48.076;11.878;2023-02-07T14:41:29;6.87;;;4.83;;
19396;SDS011;9834;48.076;11.878;2023-02-07T14:43:58;6.53;;;4.97;;
19396;SDS011;9834;48.076;11.878;2023-02-07T14:46:28;5.07;;;4.57;;
19396;SDS011;9834;48.076;11.878;2023-02-07T14:49:00;6.37;;;4.60;;
19396;SDS011;9834;48.076;11.878;2023-02-07T14:51:31;13.23;;;5.33;;
19396;SDS011;9834;48.076;11.878;2023-02-07T14:54:05;7.53;;;4.87;;
19396;SDS011;9834;48.076;11.878;2023-02-07T14:56:40;5.73;;;5.10;;
19396;SDS011;9834;48.076;11.878;2023-02-07T14:59:15;9.40;;;5.67;;
19396;SDS011;9834;48.076;11.878;2023-02-07T15:01:48;6.77;;;5.13;;
19396;SDS011;9834;48.076;11.878;2023-02-07T15:04:17;8.40;;;5.23;;
19396;SDS011;9834;48.076;11.878;2023-02-07T15:06:44;6.17;;;4.97;;
19396;SDS011;9834;48.076;11.878;2023-02-07T15:09:19;5.67;;;5.03;;
19396;SDS011;9834;48.076;11.878;2023-02-07T15:11:50;8.60;;;5.07;;
19396;SDS011;9834;48.076;11.878;2023-02-07T15:14:21;8.43;;;5.03;;
19396;SDS011;9834;48.076;11.878;2023-02-07T15:16:53;6.27;;;5.10;;
19396;SDS011;9834;48.076;11.878;2023-02-07T15:19:25;8.07;;;5.00;;
19396;SDS011;9834;48.076;11.878;2023-02-07T15:21:59;6.43;;;5.17;;